Time;durP1;ratioP1;P1;durP2;ratioP2;P2;SDS_P1;SDS_P2;PMS_P1;PMS_P2;Temp;Humidity;BMP_temperature;BMP_pressure;BME280_temperature;BME280_humidity;BME280_pressure;Samples;Min_cycle;Max_cycle;Signal;HPM_P1;HPM_P2
2023/03/02 00:00:53;;;;;;;5.65;4.38;;;;;;;18.70;32.49;102472.19;5087796;28;20031;-74
2023/03/02 00:03:19;;;;;;;6.82;4.78;;;;;;;19.28;32.52;102579.59;5099424;28;20076;-73
2023/03/02 00:05:46;;;;;;;5.63;4.57;;;;;;;19.28;32.62;102574.19;5099385;28;20044;-74
2023/03/02 00:08:12;;;;;;;5.05;4.10;;;;;;;19.27;32.73;102567.94;5093039;28;20020;-75
2023/03/02 00:10:37;;;;;;;5.93;4.72;;;;;;;19.27;32.89;102570.66;5090902;28;20032;-73
2023/03/02 00:13:05;;;;;;;5.82;4.90;;;;;;;19.27;32.50;102575.19;5094419;28;20021;-74
2023/03/02 00:15:31;;;;;;;5.63;4.60;;;;;;;19.28;32.69;102574.19;5087401;28;20111;-74
2023/03/02 00:17:56;;;;;;;4.82;4.32;;;;;;;19.27;32.39;102576.03;5092850;28;20497;-74
2023/03/02 00:20:21;;;;;;;5.40;4.32;;;;;;;18.86;32.32;102504.06;5091570;28;20032;-74
2023/03/02 00:22:47;;;;;;;5.10;4.40;;;;;;;19.30;32.60;102577.63;5103616;28;20041;-74
2023/03/02 00:25:13;;;;;;;5.05;4.32;;;;;;;19.25;32.30;102564.53;5097316;28;20031;-73
2023/03/02 00:27:39;;;;;;;5.60;4.75;;;;;;;19.02;32.40;102536.81;5087963;28;20020;-73
2023/03/02 00:30:05;;;;;;;5.75;5.13;;;;;;;19.32;32.41;102578.34;5092717;28;20060;-74
2023/03/02 00:32:31;;;;;;;5.82;4.28;;;;;;;19.32;32.42;102570.25;5094317;28;20036;-74
2023/03/02 00:34:57;;;;;;;5.65;4.20;;;;;;;19.32;32.54;102565.72;5102644;28;20020;-74
2023/03/02 00:37:24;;;;;;;7.05;5.05;;;;;;;19.33;32.20;102567.44;5072972;28;20016;-74
2023/03/02 00:39:50;;;;;;;5.95;5.13;;;;;;;19.35;32.27;102570.00;5102599;28;20073;-74
2023/03/02 00:42:16;;;;;;;6.20;4.55;;;;;;;19.34;32.34;102579.94;5094073;28;20024;-73
2023/03/02 00:44:41;;;;;;;5.30;4.40;;;;;;;19.37;32.41;102565.31;5090280;28;20028;-74
2023/03/02 00:47:06;;;;;;;5.40;4.85;;;;;;;19.35;32.35;102553.81;5091930;28;20473;-73
2023/03/02 00:49:31;;;;;;;6.50;5.10;;;;;;;19.38;32.39;102550.88;5101553;28;20029;-74
2023/03/02 00:51:57;;;;;;;5.45;4.93;;;;;;;19.22;32.20;102530.59;5102837;28;20028;-74
2023/03/02 00:54:22;;;;;;;5.15;4.65;;;;;;;19.40;32.33;102551.56;5102349;28;20047;-74
2023/03/02 00:56:47;;;;;;;5.57;4.90;;;;;;;19.42;31.81;102546.91;5092953;28;20021;-74
2023/03/02 00:59:25;;;;;;;6.30;5.20;;;;;;;19.43;32.03;102546.78;5094183;28;20029;-75
2023/03/02 01:01:58;;;;;;;6.15;4.22;;;;;;;18.95;32.23;102455.66;5102468;28;20032;-75
2023/03/02 01:04:32;;;;;;;5.55;4.82;;;;;;;19.45;31.87;102534.03;5091876;28;20048;-74
2023/03/02 01:06:59;;;;;;;5.85;5.25;;;;;;;19.46;31.88;102538.44;5102034;28;20024;-74
2023/03/02 01:09:25;;;;;;;5.43;4.45;;;;;;;19.48;32.09;102527.50;5090984;28;20028;-74
2023/03/02 01:11:50;;;;;;;6.00;4.88;;;;;;;19.49;31.63;102523.81;5084514;28;20029;-74
2023/03/02 01:14:15;;;;;;;5.70;4.68;;;;;;;19.45;32.10;102509.75;5095651;28;20049;-74
2023/03/02 01:16:41;;;;;;;5.03;4.53;;;;;;;19.52;32.02;102514.59;5101153;28;20021;-74
2023/03/02 01:19:06;;;;;;;6.72;5.03;;;;;;;19.53;31.87;102508.22;5080740;28;20032;-74
2023/03/02 01:21:31;;;;;;;6.10;4.72;;;;;;;19.53;32.08;102506.34;5090994;28;20617;-74
2023/03/02 01:23:57;;;;;;;6.00;4.78;;;;;;;18.99;31.98;102410.41;5094459;28;20027;-74
2023/03/02 01:26:22;;;;;;;5.10;4.60;;;;;;;19.57;31.67;102499.72;5089212;28;20525;-74
2023/03/02 01:28:48;;;;;;;7.10;5.60;;;;;;;19.42;31.51;102468.69;5090464;28;20032;-74
2023/03/02 01:31:13;;;;;;;6.00;4.90;;;;;;;19.60;31.54;102504.00;5094991;28;20121;-75
2023/03/02 01:33:38;;;;;;;5.72;4.60;;;;;;;19.10;31.59;102418.41;5094899;28;20048;-74
2023/03/02 01:36:04;;;;;;;6.25;5.13;;;;;;;19.06;31.65;102408.03;5091357;28;20091;-75
2023/03/02 01:38:29;;;;;;;5.38;4.40;;;;;;;19.62;31.41;102508.28;5102944;28;20040;-74
2023/03/02 01:40:54;;;;;;;5.47;4.85;;;;;;;19.64;31.71;102500.06;5095394;28;20032;-74
2023/03/02 01:43:20;;;;;;;5.75;4.75;;;;;;;19.19;31.85;102431.09;5094897;28;20016;-73
2023/03/02 01:45:54;;;;;;;5.75;4.82;;;;;;;19.60;31.60;102498.59;5088548;28;20084;-74
2023/03/02 01:48:31;;;;;;;6.25;5.00;;;;;;;19.66;31.36;102498.94;5095229;28;20473;-73
2023/03/02 01:50:57;;;;;;;6.82;5.00;;;;;;;19.67;31.34;102511.44;5100068;28;20056;-73
2023/03/02 01:53:25;;;;;;;6.28;5.57;;;;;;;19.51;31.39;102478.69;5100686;28;20074;-75
2023/03/02 01:55:50;;;;;;;6.13;5.32;;;;;;;19.70;31.38;102513.84;5088620;28;20549;-75
2023/03/02 01:58:16;;;;;;;5.72;5.03;;;;;;;19.71;31.66;102509.34;5098694;28;20055;-75
2023/03/02 02:00:42;;;;;;;5.78;4.63;;;;;;;19.75;31.63;102515.31;5097597;28;20178;-74
2023/03/02 02:03:19;;;;;;;5.82;5.22;;;;;;;19.73;31.57;102513.59;5100092;28;20047;-74
2023/03/02 02:05:48;;;;;;;6.18;5.05;;;;;;;19.79;31.40;102520.28;5087692;28;20034;-74
2023/03/02 02:08:13;;;;;;;4.68;4.15;;;;;;;19.73;31.45;102496.56;5095880;28;20025;-74
2023/03/02 02:10:38;;;;;;;6.80;5.05;;;;;;;19.83;31.52;102510.94;5093512;28;20429;-73
2023/03/02 02:13:07;;;;;;;6.72;5.45;;;;;;;19.84;31.23;102509.97;5087917;28;20027;-74
2023/03/02 02:15:33;;;;;;;5.72;4.57;;;;;;;19.39;31.16;102432.03;5085844;28;20058;-74
2023/03/02 02:17:58;;;;;;;6.15;4.65;;;;;;;19.65;31.11;102464.84;5097472;28;20424;-74
2023/03/02 02:20:31;;;;;;;6.35;4.75;;;;;;;19.03;31.11;102363.34;5081898;28;20032;-74
2023/03/02 02:23:08;;;;;;;5.93;4.78;;;;;;;19.91;31.19;102500.31;5085073;28;20032;-74
2023/03/02 02:25:52;;;;;;;5.82;5.18;;;;;;;19.93;31.06;102497.50;5099244;28;20129;-74
2023/03/02 02:28:27;;;;;;;6.40;5.68;;;;;;;19.90;31.20;102492.38;5093897;28;20110;-74
2023/03/02 02:31:03;;;;;;;5.38;4.40;;;;;;;19.83;30.88;102488.50;5077685;28;20028;-74
2023/03/02 02:33:30;;;;;;;6.75;5.25;;;;;;;19.55;31.07;102430.69;5089254;28;20040;-74
2023/03/02 02:36:02;;;;;;;5.28;4.68;;;;;;;19.98;31.10;102496.09;5076095;28;20024;-74
2023/03/02 02:38:27;;;;;;;4.95;4.45;;;;;;;19.94;30.68;102485.69;5095641;28;20024;-74
2023/03/02 02:40:56;;;;;;;6.32;5.13;;;;;;;20.03;30.69;102489.41;5088824;28;20501;-74
2023/03/02 02:43:22;;;;;;;5.28;4.78;;;;;;;20.04;30.59;102494.66;5086561;28;20104;-74
2023/03/02 02:45:54;;;;;;;5.97;4.85;;;;;;;20.07;30.79;102490.84;5090475;28;20036;-74
2023/03/02 02:48:23;;;;;;;4.90;4.35;;;;;;;20.09;30.61;102497.84;5088299;28;20024;-74
2023/03/02 02:50:48;;;;;;;8.93;5.20;;;;;;;19.62;30.75;102410.28;5087596;28;20039;-74
2023/03/02 02:53:20;;;;;;;5.28;4.43;;;;;;;20.14;30.91;102494.72;5086000;28;20036;-74
2023/03/02 02:55:47;;;;;;;5.35;4.35;;;;;;;20.15;30.95;102501.81;5091662;28;20329;-74
2023/03/02 02:58:24;;;;;;;6.47;5.07;;;;;;;20.16;30.89;102488.16;5094150;28;20050;-74
2023/03/02 03:00:50;;;;;;;4.88;4.32;;;;;;;20.18;30.70;102488.03;5091958;28;20024;-74
2023/03/02 03:03:29;;;;;;;5.50;4.78;;;;;;;19.85;30.72;102429.84;5085617;28;20108;-74
2023/03/02 03:05:56;;;;;;;5.65;4.85;;;;;;;20.20;30.84;102486.91;5089818;28;20020;-74
2023/03/02 03:08:40;;;;;;;5.68;4.75;;;;;;;20.23;30.59;102493.88;5088948;28;20461;-73
2023/03/02 03:11:06;;;;;;;5.35;4.70;;;;;;;20.25;30.74;102486.47;5092887;28;20029;-74
2023/03/02 03:13:31;;;;;;;4.55;3.83;;;;;;;19.75;30.55;102415.44;5088506;28;20028;-74
2023/03/02 03:15:57;;;;;;;5.47;4.88;;;;;;;19.83;30.57;102429.09;5085338;28;20557;-74
2023/03/02 03:18:23;;;;;;;4.75;4.22;;;;;;;20.31;30.39;102495.91;5094474;28;20024;-73
2023/03/02 03:20:48;;;;;;;5.85;4.57;;;;;;;19.91;30.68;102427.44;5087760;28;20038;-73
2023/03/02 03:23:13;;;;;;;5.65;4.53;;;;;;;20.35;30.63;102492.78;5088646;28;20028;-74
2023/03/02 03:25:39;;;;;;;6.15;4.82;;;;;;;20.32;30.58;102489.50;5088039;28;20023;-73
2023/03/02 03:28:04;;;;;;;6.22;5.25;;;;;;;20.37;30.56;102488.06;5094557;28;20032;-74
2023/03/02 03:30:29;;;;;;;4.97;4.47;;;;;;;20.42;30.32;102495.75;5099964;28;20055;-73
2023/03/02 03:32:55;;;;;;;5.82;4.93;;;;;;;20.42;30.24;102491.19;5087886;28;20024;-75
2023/03/02 03:35:20;;;;;;;5.18;4.40;;;;;;;20.45;30.09;102490.91;5096639;28;20028;-74
2023/03/02 03:37:47;;;;;;;5.07;4.32;;;;;;;19.99;30.51;102418.63;5101016;28;20028;-74
2023/03/02 03:40:13;;;;;;;5.53;4.85;;;;;;;20.46;30.30;102491.78;5100284;28;20033;-74
2023/03/02 03:42:38;;;;;;;4.70;4.10;;;;;;;20.47;30.42;102486.25;5111499;28;20092;-74
2023/03/02 03:45:05;;;;;;;6.68;5.28;;;;;;;20.49;30.04;102491.53;5102072;28;20024;-74
2023/03/02 03:47:30;;;;;;;5.20;4.40;;;;;;;20.51;30.05;102488.69;5095392;28;20025;-74
2023/03/02 03:49:55;;;;;;;5.75;4.68;;;;;;;20.09;30.37;102415.94;5103346;28;20032;-74
2023/03/02 03:52:29;;;;;;;5.70;4.53;;;;;;;20.48;30.15;102479.03;5094421;28;20028;-74
2023/03/02 03:54:56;;;;;;;6.10;5.10;;;;;;;20.24;30.24;102438.88;5105041;28;20021;-74
2023/03/02 03:57:22;;;;;;;5.30;4.35;;;;;;;20.13;30.03;102420.06;5096020;28;20024;-74
2023/03/02 03:59:47;;;;;;;5.50;4.30;;;;;;;20.09;30.28;102411.44;5099256;28;20035;-74
2023/03/02 04:02:12;;;;;;;4.85;4.35;;;;;;;20.14;30.33;102411.00;5103133;28;20039;-74
2023/03/02 04:04:37;;;;;;;5.22;4.35;;;;;;;20.13;30.23;102411.97;5104430;28;20033;-73
2023/03/02 04:07:06;;;;;;;4.85;4.15;;;;;;;20.62;30.19;102496.66;5086154;28;20041;-74
2023/03/02 04:09:36;;;;;;;6.80;5.00;;;;;;;20.62;30.08;102494.81;5090692;28;20024;-73
2023/03/02 04:12:02;;;;;;;5.65;4.85;;;;;;;20.64;30.42;102492.81;5100603;28;20094;-73
2023/03/02 04:14:27;;;;;;;5.38;4.28;;;;;;;20.15;30.07;102410.84;5103147;28;20032;-74
2023/03/02 04:16:53;;;;;;;5.28;4.38;;;;;;;20.65;30.03;102491.84;5092052;28;20036;-74
2023/03/02 04:19:18;;;;;;;5.93;4.90;;;;;;;20.65;30.13;102488.28;5084610;28;20024;-73
2023/03/02 04:21:47;;;;;;;4.47;3.85;;;;;;;20.68;30.26;102494.22;5096397;28;20040;-74
2023/03/02 04:24:13;;;;;;;5.57;4.60;;;;;;;20.24;30.04;102417.25;5094384;28;20032;-73
2023/03/02 04:26:39;;;;;;;5.70;4.57;;;;;;;20.62;30.22;102472.34;5089984;28;20024;-73
2023/03/02 04:29:05;;;;;;;5.00;4.28;;;;;;;20.22;29.87;102403.06;5101026;28;20027;-73
2023/03/02 04:31:31;;;;;;;5.85;4.97;;;;;;;20.72;30.25;102484.00;5097942;28;20086;-73
2023/03/02 04:33:57;;;;;;;5.30;4.32;;;;;;;20.73;29.88;102480.31;5094435;28;20020;-74
2023/03/02 04:36:23;;;;;;;5.60;4.95;;;;;;;20.25;29.92;102396.50;5102516;28;20050;-74
2023/03/02 04:38:48;;;;;;;6.32;4.65;;;;;;;20.77;29.88;102479.00;5087862;28;20024;-74
2023/03/02 04:41:14;;;;;;;4.97;4.47;;;;;;;20.79;29.68;102476.19;5097173;28;20078;-74
2023/03/02 04:43:39;;;;;;;5.55;4.78;;;;;;;20.33;29.84;102410.16;5089813;28;20035;-74
2023/03/02 04:46:05;;;;;;;6.78;4.65;;;;;;;20.28;30.13;102402.47;5090379;28;20016;-74
2023/03/02 04:48:30;;;;;;;5.65;4.70;;;;;;;20.79;29.89;102478.88;5089819;28;20496;-75
2023/03/02 04:50:55;;;;;;;5.97;5.38;;;;;;;20.78;29.75;102482.59;5095180;28;20074;-75
2023/03/02 04:53:21;;;;;;;4.45;3.92;;;;;;;20.82;30.00;102475.91;5089120;28;20028;-75
2023/03/02 04:55:46;;;;;;;5.03;4.38;;;;;;;20.75;29.86;102470.19;5075063;28;20095;-74
2023/03/02 04:58:11;;;;;;;5.55;4.93;;;;;;;20.84;29.67;102482.00;5094744;28;20151;-73
2023/03/02 05:00:37;;;;;;;5.50;4.47;;;;;;;20.50;29.75;102419.44;5085058;28;20028;-74
2023/03/02 05:03:03;;;;;;;6.00;5.07;;;;;;;20.83;29.93;102475.75;5092586;28;20060;-72
2023/03/02 05:05:29;;;;;;;5.40;4.88;;;;;;;20.87;29.94;102484.44;5101649;28;20040;-73
2023/03/02 05:07:55;;;;;;;4.57;3.95;;;;;;;20.87;29.90;102485.28;5089293;28;20057;-73
2023/03/02 05:10:21;;;;;;;5.10;4.60;;;;;;;20.40;29.87;102404.03;5093654;28;20038;-72
2023/03/02 05:12:53;;;;;;;5.72;5.13;;;;;;;20.90;29.41;102486.84;5094895;28;20036;-77
2023/03/02 05:15:31;;;;;;;5.95;5.35;;;;;;;20.47;29.80;102409.72;5085903;28;20032;-72
2023/03/02 05:17:56;;;;;;;6.65;4.75;;;;;;;20.92;29.84;102484.84;5084559;28;20388;-72
2023/03/02 05:20:26;;;;;;;5.15;4.53;;;;;;;20.90;29.81;102487.72;5088771;28;20036;-73
2023/03/02 05:22:57;;;;;;;6.60;4.38;;;;;;;20.91;29.46;102492.09;5102865;28;20435;-73
2023/03/02 05:25:24;;;;;;;5.40;4.47;;;;;;;20.92;29.62;102484.84;5091094;28;20073;-74
2023/03/02 05:27:49;;;;;;;5.40;4.50;;;;;;;20.44;29.72;102410.88;5099326;28;20085;-73
2023/03/02 05:30:15;;;;;;;6.28;4.82;;;;;;;20.42;29.77;102406.59;5099913;28;20024;-74
2023/03/02 05:32:40;;;;;;;5.97;5.05;;;;;;;20.91;29.93;102488.56;5099350;28;20039;-73
2023/03/02 05:35:06;;;;;;;5.53;4.43;;;;;;;20.39;29.74;102399.66;5098840;28;20084;-72
2023/03/02 05:37:31;;;;;;;7.30;5.03;;;;;;;20.91;29.49;102486.69;5101053;28;20028;-69
2023/03/02 05:39:57;;;;;;;6.50;5.07;;;;;;;20.87;29.92;102481.72;5095525;28;20393;-70
2023/03/02 05:42:22;;;;;;;6.15;5.00;;;;;;;20.93;30.00;102494.66;5096683;28;20075;-70
2023/03/02 05:44:47;;;;;;;6.07;4.78;;;;;;;20.95;29.91;102489.97;5097380;28;20115;-69
2023/03/02 05:47:13;;;;;;;4.72;4.20;;;;;;;20.88;29.80;102480.72;5103342;28;20069;-71
2023/03/02 05:49:38;;;;;;;5.40;4.65;;;;;;;20.95;29.92;102485.41;5096688;28;20057;-70
2023/03/02 05:52:03;;;;;;;6.47;5.28;;;;;;;20.53;29.70;102411.06;5097274;28;20035;-70
2023/03/02 05:54:29;;;;;;;4.95;4.28;;;;;;;20.64;29.88;102437.91;5099115;28;20290;-71
2023/03/02 05:56:54;;;;;;;5.53;4.22;;;;;;;20.97;29.79;102478.00;5102466;28;20024;-70
2023/03/02 05:59:19;;;;;;;5.55;4.95;;;;;;;20.89;30.03;102471.59;5099053;28;20476;-70
2023/03/02 06:01:44;;;;;;;5.55;4.55;;;;;;;20.99;30.03;102483.28;5096546;28;20059;-68
2023/03/02 06:04:10;;;;;;;6.85;5.03;;;;;;;20.51;29.99;102402.22;5086799;28;20055;-70
2023/03/02 06:06:35;;;;;;;6.10;4.80;;;;;;;20.85;29.92;102456.66;5100256;28;20020;-71
2023/03/02 06:09:00;;;;;;;7.18;5.50;;;;;;;20.52;30.25;102398.50;5100071;28;20028;-69
2023/03/02 06:11:26;;;;;;;6.38;5.68;;;;;;;20.93;30.33;102465.75;5100744;28;20024;-71
2023/03/02 06:13:51;;;;;;;6.93;5.60;;;;;;;20.88;30.07;102464.50;5095521;28;20028;-71
2023/03/02 06:16:18;;;;;;;7.03;5.25;;;;;;;20.47;30.23;102407.00;5102142;28;20024;-71
2023/03/02 06:18:44;;;;;;;7.07;5.28;;;;;;;20.93;30.63;102471.16;5084389;28;20066;-71
2023/03/02 06:21:09;;;;;;;6.40;4.72;;;;;;;20.96;30.17;102480.84;5100540;28;20074;-69
2023/03/02 06:23:34;;;;;;;6.28;4.95;;;;;;;21.03;30.20;102487.41;5099748;28;20030;-69
2023/03/02 06:26:07;;;;;;;7.50;5.28;;;;;;;21.00;30.11;102478.72;5099203;28;20028;-70
2023/03/02 06:28:32;;;;;;;7.22;5.60;;;;;;;21.00;30.18;102478.72;5099346;28;20027;-69
2023/03/02 06:30:59;;;;;;;7.47;5.15;;;;;;;20.60;30.11;102422.97;5098781;28;20511;-70
2023/03/02 06:33:24;;;;;;;6.80;5.40;;;;;;;20.90;30.44;102474.19;5098491;28;20054;-72
2023/03/02 06:35:49;;;;;;;6.32;5.25;;;;;;;20.53;30.46;102413.75;5078593;28;20024;-71
2023/03/02 06:38:15;;;;;;;7.90;5.35;;;;;;;20.82;30.21;102467.78;5099738;28;20081;-71
2023/03/02 06:40:40;;;;;;;6.88;4.80;;;;;;;20.61;30.37;102443.63;5096078;28;20114;-73
2023/03/02 06:43:05;;;;;;;7.28;5.30;;;;;;;20.95;30.26;102490.81;5093701;28;20023;-76
2023/03/02 06:45:32;;;;;;;6.30;5.18;;;;;;;20.70;30.39;102445.47;5095084;28;20036;-73
2023/03/02 06:47:58;;;;;;;8.30;5.70;;;;;;;21.14;30.13;102516.97;5090090;28;20020;-73
2023/03/02 06:50:23;;;;;;;6.70;5.55;;;;;;;21.01;30.04;102493.94;5090127;28;20095;-73
2023/03/02 06:52:49;;;;;;;7.65;5.35;;;;;;;20.93;30.08;102481.13;5090512;28;20032;-73
2023/03/02 06:55:14;;;;;;;7.85;5.72;;;;;;;20.64;30.38;102435.19;5092702;28;20036;-73
2023/03/02 06:57:39;;;;;;;7.80;5.95;;;;;;;21.07;29.96;102515.88;5090384;28;20031;-71
2023/03/02 07:00:10;;;;;;;7.18;5.50;;;;;;;21.18;29.96;102518.41;5083674;28;20032;-71
2023/03/02 07:02:35;;;;;;;7.30;5.82;;;;;;;21.10;29.99;102501.19;5089333;28;20050;-70
2023/03/02 07:05:01;;;;;;;6.30;4.97;;;;;;;21.26;30.04;102520.38;5094742;28;20119;-71
2023/03/02 07:07:26;;;;;;;7.15;5.03;;;;;;;21.28;30.50;102533.75;5075609;28;20048;-70
2023/03/02 07:09:51;;;;;;;7.25;5.43;;;;;;;20.81;30.23;102450.69;5097330;28;20026;-74
2023/03/02 07:12:18;;;;;;;7.40;5.63;;;;;;;21.30;30.01;102529.91;5098835;28;20051;-71
2023/03/02 07:14:43;;;;;;;7.93;5.22;;;;;;;20.40;30.24;102381.59;5100798;28;20037;-73
2023/03/02 07:17:08;;;;;;;6.03;4.95;;;;;;;21.33;30.15;102521.56;5097944;28;20087;-73
2023/03/02 07:19:34;;;;;;;7.57;5.30;;;;;;;21.35;29.80;102518.69;5094757;28;20031;-72
2023/03/02 07:21:59;;;;;;;7.35;5.65;;;;;;;21.36;29.94;102514.97;5097608;28;20087;-72
2023/03/02 07:24:24;;;;;;;7.13;5.55;;;;;;;21.32;30.13;102513.56;5098120;28;20028;-72
2023/03/02 07:26:50;;;;;;;8.10;5.35;;;;;;;21.37;29.61;102517.56;5094946;28;20473;-72
2023/03/02 07:29:15;;;;;;;9.50;5.78;;;;;;;21.19;29.72;102494.91;5090389;28;20028;-73
2023/03/02 07:31:43;;;;;;;7.40;5.85;;;;;;;21.21;29.70;102491.06;5088360;28;20052;-73
2023/03/02 07:34:08;;;;;;;7.20;5.63;;;;;;;21.42;29.88;102520.66;5085691;28;20028;-72
2023/03/02 07:36:33;;;;;;;9.00;5.35;;;;;;;21.34;29.67;102500.75;5092364;28;20539;-73
2023/03/02 07:39:02;;;;;;;7.53;5.68;;;;;;;21.36;29.63;102501.44;5086302;28;20025;-73
2023/03/02 07:41:27;;;;;;;6.45;4.95;;;;;;;21.37;29.41;102506.72;5091824;28;20016;-73
2023/03/02 07:43:52;;;;;;;7.53;5.50;;;;;;;21.17;29.88;102462.59;5088982;28;20028;-73
2023/03/02 07:46:17;;;;;;;7.78;5.90;;;;;;;21.48;29.82;102512.97;5092783;28;20028;-73
2023/03/02 07:48:43;;;;;;;9.10;5.18;;;;;;;21.36;29.56;102493.34;5086979;28;20032;-73
2023/03/02 07:51:08;;;;;;;7.35;5.05;;;;;;;21.36;29.57;102491.47;5090766;28;20106;-72
2023/03/02 07:53:33;;;;;;;9.20;5.82;;;;;;;21.52;29.56;102512.53;5099112;28;20091;-72
2023/03/02 07:56:01;;;;;;;7.53;5.53;;;;;;;21.13;29.26;102450.38;5095692;28;20088;-73
2023/03/02 07:58:26;;;;;;;7.70;5.97;;;;;;;21.55;29.31;102514.09;5097691;28;20055;-73
2023/03/02 08:00:51;;;;;;;7.72;5.90;;;;;;;21.55;29.37;102516.78;5080590;28;20404;-71
2023/03/02 08:03:17;;;;;;;8.35;6.70;;;;;;;21.57;29.59;102507.50;5078182;28;20063;-72
2023/03/02 08:05:42;;;;;;;7.90;5.72;;;;;;;20.78;29.39;102375.31;5094824;28;20044;-73
2023/03/02 08:08:07;;;;;;;7.65;5.63;;;;;;;21.58;29.35;102497.53;5090448;28;20104;-73
2023/03/02 08:10:34;;;;;;;6.90;5.05;;;;;;;21.56;29.47;102504.97;5102182;28;20377;-73
2023/03/02 08:12:59;;;;;;;6.70;5.28;;;;;;;21.12;29.55;102432.44;5096866;28;20024;-73
2023/03/02 08:15:25;;;;;;;7.95;6.05;;;;;;;21.09;29.50;102432.72;5096471;28;20034;-73
2023/03/02 08:17:50;;;;;;;8.77;6.13;;;;;;;21.39;29.67;102476.81;5097561;28;20028;-74
2023/03/02 08:20:15;;;;;;;8.75;6.00;;;;;;;21.21;29.50;102442.38;5097223;28;20039;-73
2023/03/02 08:22:41;;;;;;;6.72;5.15;;;;;;;21.50;29.58;102495.59;5082317;28;20028;-72
2023/03/02 08:25:06;;;;;;;7.78;5.40;;;;;;;21.67;29.24;102516.47;5099512;28;20031;-73
2023/03/02 08:27:32;;;;;;;8.18;5.90;;;;;;;21.62;29.48;102516.06;5101905;28;20028;-73
2023/03/02 08:29:57;;;;;;;8.50;5.75;;;;;;;21.69;29.55;102522.56;5102181;28;20833;-73
2023/03/02 08:32:22;;;;;;;8.90;6.00;;;;;;;21.19;29.29;102451.63;5096037;28;20024;-72
2023/03/02 08:34:50;;;;;;;7.43;5.63;;;;;;;21.70;29.09;102518.84;5098513;28;20086;-72
2023/03/02 08:37:16;;;;;;;7.82;5.78;;;;;;;21.71;29.48;102525.16;5102115;28;20016;-73
2023/03/02 08:39:41;;;;;;;8.40;6.40;;;;;;;21.28;29.45;102449.88;5101660;28;20024;-73
2023/03/02 08:42:07;;;;;;;8.18;6.20;;;;;;;21.62;29.51;102504.34;5101701;28;20028;-73
2023/03/02 08:44:32;;;;;;;8.07;5.60;;;;;;;21.72;29.26;102521.44;5092045;28;20711;-78
2023/03/02 08:46:57;;;;;;;7.43;5.38;;;;;;;21.72;29.37;102521.44;5093235;28;20042;-74
2023/03/02 08:49:22;;;;;;;7.93;6.18;;;;;;;21.33;29.51;102459.31;5098860;28;20024;-73
2023/03/02 08:51:52;;;;;;;7.68;5.20;;;;;;;21.74;29.52;102519.41;5093056;28;20032;-73
2023/03/02 08:54:18;;;;;;;7.93;5.68;;;;;;;21.73;29.25;102517.72;5097469;28;20039;-74
2023/03/02 08:56:43;;;;;;;8.32;6.10;;;;;;;21.74;29.68;102523.97;5088330;28;20690;-73
2023/03/02 08:59:12;;;;;;;7.57;5.53;;;;;;;21.12;29.53;102415.38;5098993;28;20032;-72
2023/03/02 09:01:37;;;;;;;7.40;5.32;;;;;;;21.62;29.25;102499.81;5103131;28;20024;-75
2023/03/02 09:04:08;;;;;;;6.72;5.40;;;;;;;21.67;29.43;102500.22;5097289;28;20052;-74
2023/03/02 09:06:36;;;;;;;7.80;5.43;;;;;;;21.80;29.19;102516.13;5088783;28;20023;-75
2023/03/02 09:09:02;;;;;;;7.00;5.25;;;;;;;21.83;29.49;102509.53;5079723;28;20024;-73
2023/03/02 09:11:27;;;;;;;7.65;5.57;;;;;;;21.86;29.51;102517.38;5092477;28;20054;-73
2023/03/02 09:13:53;;;;;;;7.10;5.20;;;;;;;21.89;29.16;102514.38;5084703;28;20525;-73
2023/03/02 09:16:19;;;;;;;7.30;5.35;;;;;;;21.25;29.42;102398.81;5094572;28;20051;-72
2023/03/02 09:18:45;;;;;;;6.68;5.20;;;;;;;21.92;29.22;102511.38;5097368;28;20028;-73
2023/03/02 09:21:10;;;;;;;7.82;5.25;;;;;;;21.95;29.25;102506.50;5095290;28;20027;-72
2023/03/02 09:23:36;;;;;;;7.25;5.00;;;;;;;22.01;29.25;102512.34;5094579;28;20019;-73
2023/03/02 09:26:02;;;;;;;5.47;3.80;;;;;;;22.07;29.41;102514.44;5091835;28;20055;-73
2023/03/02 09:28:28;;;;;;;6.60;5.00;;;;;;;21.91;29.16;102501.53;5071956;28;20051;-74
2023/03/02 09:30:56;;;;;;;5.53;4.80;;;;;;;21.85;29.00;102488.59;5095699;28;20039;-73
2023/03/02 09:33:21;;;;;;;5.43;4.30;;;;;;;21.56;29.40;102437.31;5091742;28;20028;-74
2023/03/02 09:35:47;;;;;;;6.22;4.55;;;;;;;22.08;29.19;102513.41;5094810;28;20043;-74
2023/03/02 09:38:15;;;;;;;5.75;4.65;;;;;;;21.55;29.57;102443.72;5085197;28;20465;-73
2023/03/02 09:40:48;;;;;;;5.85;4.40;;;;;;;22.06;29.50;102508.16;5096323;28;20024;-74
2023/03/02 09:43:38;;;;;;;6.47;4.93;;;;;;;22.05;29.36;102516.44;5089076;28;20059;-73
2023/03/02 09:46:26;;;;;;;5.05;4.03;;;;;;;22.05;29.55;102519.16;5098817;28;20028;-73
2023/03/02 09:49:24;;;;;;;4.47;3.78;;;;;;;22.04;29.43;102520.13;5093555;28;20016;-73
2023/03/02 09:52:08;;;;;;;6.20;4.20;;;;;;;21.95;29.65;102500.22;5091066;28;20080;-72
2023/03/02 09:54:34;;;;;;;6.15;3.85;;;;;;;21.54;29.51;102432.03;5100673;28;20035;-72
2023/03/02 09:56:59;;;;;;;5.70;4.05;;;;;;;22.06;29.57;102516.28;5094340;28;20104;-73
2023/03/02 09:59:44;;;;;;;5.15;3.67;;;;;;;21.73;29.66;102460.03;5082650;28;20039;-74
2023/03/02 10:02:34;;;;;;;4.68;3.78;;;;;;;22.02;29.33;102508.63;5087619;28;20032;-73
2023/03/02 10:05:01;;;;;;;4.22;3.58;;;;;;;21.53;29.56;102424.91;5099576;28;20020;-73
2023/03/02 10:07:29;;;;;;;4.63;3.63;;;;;;;22.03;29.40;102500.34;5082593;28;20021;-74
2023/03/02 10:10:25;;;;;;;4.95;3.80;;;;;;;22.10;29.42;102512.28;5094866;28;20040;-72
2023/03/02 10:13:02;;;;;;;5.25;3.97;;;;;;;22.11;29.67;102511.28;5024673;28;20244;-73
2023/03/02 10:16:00;;;;;;;4.78;3.78;;;;;;;22.14;29.59;102510.16;5041202;28;20061;-74
2023/03/02 10:18:30;;;;;;;5.55;4.32;;;;;;;22.17;29.39;102516.13;5039744;28;20037;-74
2023/03/02 10:21:12;;;;;;;4.82;3.47;;;;;;;21.76;29.40;102443.47;5041355;28;20037;-73
2023/03/02 10:23:43;;;;;;;5.05;3.50;;;;;;;22.21;29.32;102508.53;5039714;28;20076;-74
2023/03/02 10:26:17;;;;;;;4.72;3.60;;;;;;;22.23;29.21;102509.25;5024868;28;20025;-73
2023/03/02 10:28:59;;;;;;;4.82;3.55;;;;;;;22.17;29.15;102497.16;5024081;28;20040;-73
2023/03/02 10:31:27;;;;;;;5.78;4.28;;;;;;;22.32;29.16;102513.75;5039322;28;20041;-71
2023/03/02 10:33:53;;;;;;;4.57;3.75;;;;;;;22.08;29.22;102470.94;5040953;28;20071;-73
2023/03/02 10:36:23;;;;;;;3.78;3.15;;;;;;;21.81;29.14;102422.22;5041430;28;20087;-73
2023/03/02 10:38:48;;;;;;;5.40;3.70;;;;;;;21.84;29.37;102416.50;5040972;28;20030;-73
2023/03/02 10:41:19;;;;;;;4.97;3.55;;;;;;;22.45;29.20;102514.22;5041217;28;20112;-72
2023/03/02 10:43:50;;;;;;;4.75;3.63;;;;;;;22.31;29.34;102487.66;5040148;28;20109;-73
2023/03/02 10:46:15;;;;;;;5.00;3.85;;;;;;;21.89;28.84;102412.34;5040954;28;20042;-72
2023/03/02 10:48:51;;;;;;;6.00;3.90;;;;;;;22.00;28.88;102429.34;5044895;28;20140;-72
2023/03/02 10:51:22;;;;;;;4.35;3.63;;;;;;;22.48;29.06;102515.78;5090395;28;20083;-73
2023/03/02 10:53:47;;;;;;;4.20;3.47;;;;;;;21.88;29.21;102424.19;5094960;28;20039;-74
2023/03/02 10:56:19;;;;;;;4.75;3.72;;;;;;;22.16;29.18;102464.78;5092118;28;20036;-73
2023/03/02 10:58:45;;;;;;;4.78;3.60;;;;;;;22.45;29.33;102516.09;5091130;28;20040;-73
2023/03/02 11:01:18;;;;;;;4.90;3.63;;;;;;;22.38;29.45;102502.28;5092464;28;20161;-75
2023/03/02 11:04:00;;;;;;;4.53;3.58;;;;;;;21.88;29.09;102426.88;5094681;28;20127;-71
2023/03/02 11:06:27;;;;;;;3.60;3.03;;;;;;;21.94;29.48;102438.94;5100338;28;20027;-72
2023/03/02 11:09:05;;;;;;;4.90;3.90;;;;;;;22.43;29.39;102513.53;5097810;28;20039;-72
2023/03/02 11:11:31;;;;;;;4.28;3.17;;;;;;;22.43;29.33;102509.97;5089850;28;20162;-73
2023/03/02 11:14:07;;;;;;;4.45;3.42;;;;;;;22.42;29.45;102509.09;5092858;28;20036;-73
2023/03/02 11:16:33;;;;;;;4.35;3.25;;;;;;;22.41;29.24;102504.69;5092229;28;20103;-73
2023/03/02 11:19:29;;;;;;;4.60;3.70;;;;;;;22.14;29.42;102464.09;5090863;28;20024;-71
2023/03/02 11:21:59;;;;;;;4.45;3.78;;;;;;;22.40;29.32;102494.03;5090966;28;20123;-72
2023/03/02 11:24:27;;;;;;;3.60;2.95;;;;;;;22.40;29.50;102492.16;5092642;28;20028;-72
2023/03/02 11:26:55;;;;;;;4.65;3.72;;;;;;;21.93;29.71;102418.31;5089918;28;20016;-72